createdAt,value
2022-11-07T00:00:21.304Z,98001.69
2022-11-07T00:02:26.200Z,97995.41
2022-11-07T00:04:29.600Z,98002.31
2022-11-07T00:06:33.338Z,97996.25
2022-11-07T00:08:36.477Z,98004.91
2022-11-07T00:10:39.521Z,98010.03
2022-11-07T00:12:43.032Z,98005.63
2022-11-07T00:14:46.100Z,98008.03
2022-11-07T00:16:50.969Z,98014.09
2022-11-07T00:18:55.481Z,98009.59
2022-11-07T00:21:02.306Z,98018.97
2022-11-07T00:23:05.379Z,98021.50
2022-11-07T00:25:09.534Z,98029.22
2022-11-07T00:27:12.841Z,98028.34
2022-11-07T00:29:17.240Z,98023.13
2022-11-07T00:31:20.580Z,98030.03
2022-11-07T00:33:23.910Z,98031.59
2022-11-07T00:35:28.548Z,98029.09
2022-11-07T00:37:31.718Z,98033.56
2022-11-07T00:39:34.942Z,98036.28
2022-11-07T00:41:38.383Z,98042.25
2022-11-07T00:43:41.707Z,98034.22
2022-11-07T00:45:44.804Z,98044.66
2022-11-07T00:47:47.930Z,98044.66
2022-11-07T00:49:51.015Z,98053.19
2022-11-07T00:51:55.364Z,98047.03
2022-11-07T00:53:58.672Z,98048.69
2022-11-07T00:56:05.944Z,98060.09
2022-11-07T00:58:13.870Z,98058.31
2022-11-07T01:00:17.733Z,98068.03
2022-11-07T01:02:20.864Z,98059.47
2022-11-07T01:04:41.227Z,98062.06
2022-11-07T01:06:45.417Z,98060.91
2022-11-07T01:08:49.838Z,98063.41
2022-11-07T01:10:52.977Z,98065.09
2022-11-07T01:12:56.030Z,98057.38
2022-11-07T01:14:59.057Z,98058.09
2022-11-07T01:17:02.087Z,98066.53
2022-11-07T01:19:05.651Z,98055.88
2022-11-07T01:21:15.131Z,98056.47
2022-11-07T01:23:20.348Z,98061.56
2022-11-07T01:25:24.930Z,98058.84
2022-11-07T01:27:28.073Z,98056.25
2022-11-07T01:29:31.391Z,98056.03
2022-11-07T01:31:34.426Z,98045.59
2022-11-07T01:33:38.508Z,98053.31
2022-11-07T01:35:42.134Z,98047.88
2022-11-07T01:37:45.111Z,98049.34
2022-11-07T01:39:48.102Z,98048.41
2022-11-07T01:41:52.701Z,98057.06
2022-11-07T01:43:58.790Z,98049.13
2022-11-07T01:46:01.804Z,98052.44
2022-11-07T01:48:04.921Z,98043.91
2022-11-07T01:50:08.916Z,98047.44
2022-11-07T01:52:15.706Z,98055.19
2022-11-07T01:54:21.484Z,98048.91
2022-11-07T01:56:27.785Z,98054.84
2022-11-07T01:58:32.202Z,98052.22
2022-11-07T02:00:35.891Z,98056.63
2022-11-07T02:02:39.584Z,98048.91
2022-11-07T02:04:42.678Z,98051.75
2022-11-07T02:06:48.195Z,98047.44
2022-11-07T02:08:51.877Z,98052.78
2022-11-07T02:10:55.169Z,98051.22
2022-11-07T02:12:59.371Z,98048.72
2022-11-07T02:15:03.841Z,98040.78
2022-11-07T02:17:06.822Z,98048.53
2022-11-07T02:19:21.453Z,98045.06
2022-11-07T02:21:31.366Z,98045.91
2022-11-07T02:23:37.713Z,98034.69
2022-11-07T02:25:42.233Z,98045.38
2022-11-07T02:27:47.695Z,98044.53
2022-11-07T02:29:53.261Z,98041.22
2022-11-07T02:32:06.621Z,98044.75
2022-11-07T02:34:09.715Z,98040.69
2022-11-07T02:36:16.886Z,98039.38
2022-11-07T02:38:21.956Z,98041.38
2022-11-07T02:40:25.035Z,98030.53
2022-11-07T02:42:43.574Z,98039.66
2022-11-07T02:44:46.751Z,98035.69
2022-11-07T02:46:49.842Z,98036.72
2022-11-07T02:48:55.598Z,98039.44
2022-11-07T02:50:58.835Z,98038.00
2022-11-07T02:53:04.721Z,98037.38
2022-11-07T02:55:09.239Z,98040.41
2022-11-07T02:57:12.790Z,98043.50
2022-11-07T02:59:17.137Z,98033.47
2022-11-07T03:01:20.691Z,98038.91
2022-11-07T03:03:23.839Z,98042.44
2022-11-07T03:05:26.803Z,98038.16
2022-11-07T03:07:29.749Z,98028.78
2022-11-07T03:09:32.708Z,98045.28
2022-11-07T03:11:35.672Z,98044.56
2022-11-07T03:13:38.812Z,98045.47
2022-11-07T03:15:43.156Z,98048.91
2022-11-07T03:17:46.126Z,98048.09
2022-11-07T03:19:49.216Z,98044.75
2022-11-07T03:21:52.583Z,98047.38
2022-11-07T03:23:55.508Z,98049.97
2022-11-07T03:25:58.468Z,98053.41
2022-11-07T03:28:01.450Z,98050.91
2022-11-07T03:30:05.097Z,98046.53
2022-11-07T03:32:09.459Z,98044.00
2022-11-07T03:34:12.612Z,98044.22
2022-11-07T03:36:15.630Z,98046.72
2022-11-07T03:38:18.579Z,98052.59
2022-11-07T03:40:21.504Z,98058.31
2022-11-07T03:42:24.826Z,98062.50
2022-11-07T03:44:27.736Z,98065.00
2022-11-07T03:46:31.041Z,98059.78
2022-11-07T03:48:35.449Z,98071.13
2022-11-07T03:50:38.694Z,98068.53
2022-11-07T03:52:41.810Z,98078.25
2022-11-07T03:54:44.802Z,98073.13
2022-11-07T03:56:47.774Z,98067.06
2022-11-07T03:58:51.034Z,98068.97
2022-11-07T04:00:54.171Z,98072.59
2022-11-07T04:02:57.231Z,98082.94
2022-11-07T04:05:01.695Z,98072.50
2022-11-07T04:07:04.742Z,98085.44
2022-11-07T04:09:07.850Z,98085.44
2022-11-07T04:11:31.664Z,98088.91
2022-11-07T04:13:52.556Z,98086.28
2022-11-07T04:16:17.426Z,98085.44
2022-11-07T04:18:21.021Z,98095.03
2022-11-07T04:20:25.322Z,98089.94
2022-11-07T04:22:28.390Z,98085.44
2022-11-07T04:24:31.481Z,98096.72
2022-11-07T04:26:52.249Z,98094.22
2022-11-07T04:28:55.208Z,98093.34
2022-11-07T04:30:58.260Z,98101.06
2022-11-07T04:33:02.626Z,98098.56
2022-11-07T04:35:06.365Z,98105.47
2022-11-07T04:37:10.670Z,98114.44
2022-11-07T04:39:13.743Z,98104.84
2022-11-07T04:41:20.877Z,98103.91
2022-11-07T04:43:24.421Z,98104.75
2022-11-07T04:45:27.333Z,98107.25
2022-11-07T04:47:30.436Z,98102.88
2022-11-07T04:49:33.412Z,98099.44
2022-11-07T04:51:42.917Z,98107.97
2022-11-07T04:53:47.407Z,98108.69
2022-11-07T04:55:50.416Z,98111.31
2022-11-07T04:57:54.137Z,98113.81
2022-11-07T04:59:57.164Z,98112.66
2022-11-07T05:02:01.840Z,98114.25
2022-11-07T05:04:05.231Z,98122.91
2022-11-07T05:06:08.326Z,98122.69
2022-11-07T05:08:11.670Z,98127.91
2022-11-07T05:10:20.038Z,98116.53
2022-11-07T05:12:23.059Z,98126.00
2022-11-07T05:14:26.076Z,98125.09
2022-11-07T05:16:30.308Z,98121.53
2022-11-07T05:18:33.364Z,98122.25
2022-11-07T05:20:38.420Z,98126.66
2022-11-07T05:22:59.520Z,98125.59
2022-11-07T05:25:02.498Z,98125.47
2022-11-07T05:27:08.431Z,98123.91
2022-11-07T05:29:11.994Z,98122.97
2022-11-07T05:31:16.455Z,98124.56
2022-11-07T05:33:20.263Z,98127.88
2022-11-07T05:35:23.322Z,98120.88
2022-11-07T05:37:26.379Z,98129.66
2022-11-07T05:39:29.633Z,98115.75
2022-11-07T05:41:32.627Z,98128.00
2022-11-07T05:43:38.099Z,98131.53
2022-11-07T05:45:41.361Z,98127.28
2022-11-07T05:47:44.441Z,98126.53
2022-11-07T05:49:47.637Z,98124.88
2022-11-07T05:51:50.725Z,98130.91
2022-11-07T05:53:54.107Z,98126.53
2022-11-07T05:55:57.293Z,98132.69
2022-11-07T05:58:05.865Z,98122.25
2022-11-07T06:00:13.215Z,98123.19
2022-11-07T06:02:16.380Z,98133.63
2022-11-07T06:04:19.491Z,98132.09
2022-11-07T06:06:22.681Z,98136.44
2022-11-07T06:08:25.972Z,98130.19
2022-11-07T06:10:29.055Z,98131.63
2022-11-07T06:12:32.090Z,98126.31
2022-11-07T06:14:35.025Z,98120.16
2022-11-07T06:16:39.530Z,98131.31
2022-11-07T06:18:42.538Z,98134.88
2022-11-07T06:20:45.734Z,98134.88
2022-11-07T06:22:49.028Z,98136.63
2022-11-07T06:24:52.086Z,98137.38
2022-11-07T06:26:55.129Z,98136.31
2022-11-07T06:28:58.101Z,98142.09
2022-11-07T06:31:01.390Z,98142.47
2022-11-07T06:33:07.448Z,98148.19
2022-11-07T06:35:10.812Z,98153.97
2022-11-07T06:37:14.138Z,98154.34
2022-11-07T06:39:17.691Z,98155.56
2022-11-07T06:41:20.833Z,98152.53
2022-11-07T06:43:24.105Z,98153.00
2022-11-07T06:45:27.091Z,98154.41
2022-11-07T06:47:30.077Z,98158.38
2022-11-07T06:49:34.613Z,98161.50
2022-11-07T06:51:37.704Z,98153.56
2022-11-07T06:53:41.137Z,98160.25
2022-11-07T06:55:44.190Z,98155.63
2022-11-07T06:57:47.217Z,98146.63
2022-11-07T06:59:51.853Z,98163.50
2022-11-07T07:01:55.323Z,98169.25
2022-11-07T07:04:00.134Z,98173.53
2022-11-07T07:06:06.132Z,98166.91
2022-11-07T07:08:10.686Z,98179.44
2022-11-07T07:10:14.917Z,98184.81
2022-11-07T07:12:17.929Z,98188.66
2022-11-07T07:14:20.892Z,98187.38
2022-11-07T07:16:23.871Z,98189.53
2022-11-07T07:18:27.757Z,98188.97
2022-11-07T07:20:31.208Z,98198.16
2022-11-07T07:22:35.752Z,98202.94
2022-11-07T07:24:38.778Z,98211.38
2022-11-07T07:26:41.756Z,98204.75
2022-11-07T07:28:45.368Z,98216.31
2022-11-07T07:30:51.848Z,98209.91
2022-11-07T07:32:55.323Z,98219.91
2022-11-07T07:34:58.412Z,98216.75
2022-11-07T07:37:01.528Z,98219.25
2022-11-07T07:39:06.325Z,98217.47
2022-11-07T07:41:09.642Z,98225.09
2022-11-07T07:43:12.798Z,98222.34
2022-11-07T07:45:16.673Z,98220.91
2022-11-07T07:47:19.722Z,98217.59
2022-11-07T07:49:22.660Z,98223.91
2022-11-07T07:51:25.693Z,98223.56
2022-11-07T07:53:28.709Z,98226.31
2022-11-07T07:55:33.154Z,98227.50
2022-11-07T07:57:40.109Z,98222.19
2022-11-07T07:59:43.025Z,98229.56
2022-11-07T08:01:48.774Z,98234.81
2022-11-07T08:04:02.745Z,98233.84
2022-11-07T08:06:06.784Z,98228.03
2022-11-07T08:08:10.025Z,98229.94
2022-11-07T08:10:39.664Z,98233.72
2022-11-07T08:12:37.474Z,98224.66
2022-11-07T08:14:40.472Z,98236.34
2022-11-07T08:16:43.540Z,98236.44
2022-11-07T08:18:46.536Z,98235.09
2022-11-07T08:20:50.975Z,98235.50
2022-11-07T08:23:01.369Z,98232.88
2022-11-07T08:25:05.047Z,98238.00
2022-11-07T08:27:08.590Z,98233.00
2022-11-07T08:29:13.086Z,98233.94
2022-11-07T08:31:16.503Z,98241.31
2022-11-07T08:33:19.945Z,98242.63
2022-11-07T08:35:23.053Z,98235.78
2022-11-07T08:37:26.318Z,98238.03
2022-11-07T08:39:29.469Z,98244.59
2022-11-07T08:41:32.599Z,98247.91
2022-11-07T08:43:36.248Z,98241.28
2022-11-07T08:45:42.525Z,98245.91
2022-11-07T08:47:45.996Z,98243.41
2022-11-07T08:49:49.022Z,98247.03
2022-11-07T08:51:52.245Z,98238.16
2022-11-07T08:53:55.407Z,98245.34
2022-11-07T08:56:02.692Z,98248.09
2022-11-07T08:58:07.226Z,98232.22
2022-11-07T09:00:16.862Z,98241.41
2022-11-07T09:04:45.013Z,98246.34
2022-11-07T09:06:48.161Z,98242.13
2022-11-07T09:08:51.618Z,98243.56
2022-11-07T09:10:54.841Z,98245.22
2022-11-07T09:12:58.013Z,98244.84
2022-11-07T09:15:01.068Z,98251.75
2022-11-07T09:17:04.166Z,98250.81
2022-11-07T09:19:08.701Z,98258.69
2022-11-07T09:21:12.100Z,98246.38
2022-11-07T09:23:15.445Z,98249.25
2022-11-07T09:25:19.292Z,98252.13
2022-11-07T09:27:22.292Z,98253.22
2022-11-07T09:29:25.332Z,98263.34
2022-11-07T09:31:28.375Z,98259.13
2022-11-07T09:33:31.858Z,98260.44
2022-11-07T09:35:36.314Z,98265.44
2022-11-07T09:37:39.834Z,98266.25
2022-11-07T09:39:42.810Z,98268.38
2022-11-07T09:41:52.979Z,98261.91
2022-11-07T09:44:07.454Z,98261.91
2022-11-07T09:46:23.161Z,98267.88
2022-11-07T09:48:27.466Z,98266.41
2022-11-07T09:50:33.055Z,98265.06
2022-11-07T09:52:41.981Z,98268.41
2022-11-07T09:54:47.202Z,98269.31
2022-11-07T09:56:50.396Z,98270.34
2022-11-07T09:58:54.691Z,98266.09
2022-11-07T10:01:00.921Z,98264.75
2022-11-07T10:03:04.270Z,98262.69
2022-11-07T10:05:10.842Z,98264.09
2022-11-07T10:07:23.943Z,98269.53
2022-11-07T10:09:36.071Z,98272.03
2022-11-07T10:11:42.405Z,98270.66
2022-11-07T10:13:53.896Z,98271.72
2022-11-07T10:16:05.365Z,98267.44
2022-11-07T10:18:16.771Z,98263.28
2022-11-07T10:20:30.838Z,98260.06
2022-11-07T10:22:44.199Z,98258.16
2022-11-07T10:24:59.869Z,98264.41
2022-11-07T10:27:03.292Z,98264.56
2022-11-07T10:29:13.541Z,98263.66
2022-11-07T10:31:16.677Z,98260.06
2022-11-07T10:33:33.660Z,98267.94
2022-11-07T10:35:39.818Z,98263.19
2022-11-07T10:37:42.917Z,98256.66
2022-11-07T10:39:46.074Z,98252.13
2022-11-07T10:41:57.109Z,98249.06
2022-11-07T10:44:01.901Z,98250.44
2022-11-07T10:46:13.073Z,98236.72
2022-11-07T10:48:16.477Z,98243.06
2022-11-07T10:50:22.309Z,98236.59
2022-11-07T10:52:25.874Z,98228.97
2022-11-07T10:54:30.143Z,98222.34
2022-11-07T10:56:45.054Z,98224.44
2022-11-07T10:58:49.633Z,98225.59
2022-11-07T11:01:02.291Z,98219.09
2022-11-07T11:03:16.418Z,98224.22
2022-11-07T11:05:25.875Z,98214.00
2022-11-07T11:07:35.991Z,98219.44
2022-11-07T11:09:39.253Z,98219.59
2022-11-07T11:11:44.161Z,98222.94
2022-11-07T11:13:47.362Z,98221.41
2022-11-07T11:15:52.014Z,98223.47
2022-11-07T11:18:00.631Z,98228.63
2022-11-07T11:20:03.914Z,98223.38
2022-11-07T11:22:13.225Z,98222.03
2022-11-07T11:24:24.135Z,98226.63
2022-11-07T11:26:31.145Z,98230.22
2022-11-07T11:28:37.048Z,98228.72
2022-11-07T11:30:41.023Z,98229.94
2022-11-07T11:32:51.507Z,98228.84
2022-11-07T11:35:03.817Z,98226.63
2022-11-07T11:37:10.040Z,98232.16
2022-11-07T11:39:26.578Z,98221.34
2022-11-07T11:41:34.119Z,98222.28
2022-11-07T11:43:43.026Z,98212.00
2022-11-07T11:45:53.983Z,98213.38
2022-11-07T11:48:01.478Z,98212.69
2022-11-07T11:50:06.799Z,98207.22
2022-11-07T11:52:15.516Z,98206.94
2022-11-07T11:54:18.626Z,98204.56
2022-11-07T11:56:40.008Z,98196.00
2022-11-07T11:58:45.908Z,98193.50
2022-11-07T12:00:54.021Z,98196.81
2022-11-07T12:03:13.384Z,98197.66
2022-11-07T12:05:56.669Z,98192.78
2022-11-07T12:08:13.032Z,98195.38
2022-11-07T12:10:20.743Z,98199.69
2022-11-07T12:12:29.938Z,98190.41
2022-11-07T12:15:03.655Z,98196.19
2022-11-07T12:17:10.856Z,98199.19
2022-11-07T12:19:21.367Z,98187.03
2022-11-07T12:21:32.673Z,98187.44
2022-11-07T12:23:53.860Z,98193.78
2022-11-07T12:26:04.314Z,98187.84
2022-11-07T12:28:19.583Z,98188.78
2022-11-07T12:30:24.874Z,98192.84
2022-11-07T12:32:34.030Z,98187.31
2022-11-07T12:34:51.461Z,98188.88
2022-11-07T12:37:06.994Z,98190.69
2022-11-07T12:39:33.193Z,98186.84
2022-11-07T12:41:41.175Z,98187.97
2022-11-07T12:43:53.504Z,98183.41
2022-11-07T12:45:59.376Z,98187.72
2022-11-07T12:48:15.296Z,98183.66
2022-11-07T12:50:26.571Z,98183.28
2022-11-07T12:52:39.396Z,98180.38
2022-11-07T12:54:48.121Z,98171.78
2022-11-07T12:56:52.137Z,98186.59
2022-11-07T12:58:55.578Z,98181.19
2022-11-07T13:00:59.286Z,98172.06
2022-11-07T13:03:19.965Z,98170.84
2022-11-07T13:05:37.618Z,98173.31
2022-11-07T13:07:43.466Z,98173.28
2022-11-07T13:09:51.839Z,98174.97
2022-11-07T13:12:00.548Z,98185.63
2022-11-07T13:14:25.106Z,98172.22
2022-11-07T13:16:29.866Z,98187.47
2022-11-07T13:18:32.923Z,98178.59
2022-11-07T13:20:37.276Z,98176.41
2022-11-07T13:22:41.310Z,98178.47
2022-11-07T13:24:52.915Z,98186.09
2022-11-07T13:26:56.101Z,98174.59
2022-11-07T13:29:00.231Z,98168.78
2022-11-07T13:31:07.627Z,98169.50
2022-11-07T13:33:26.326Z,98176.28
2022-11-07T13:35:31.170Z,98173.13
2022-11-07T13:37:38.369Z,98169.41
2022-11-07T13:39:41.695Z,98173.69
2022-11-07T13:41:47.055Z,98164.81
2022-11-07T13:43:55.528Z,98166.34
2022-11-07T13:46:00.353Z,98166.63
2022-11-07T13:48:06.754Z,98160.34
2022-11-07T13:50:18.181Z,98161.59
2022-11-07T13:52:24.446Z,98160.88
2022-11-07T13:54:32.421Z,98156.16
2022-11-07T13:56:41.361Z,98158.41
2022-11-07T13:58:44.778Z,98150.34
2022-11-07T14:00:48.025Z,98151.72
2022-11-07T14:02:53.725Z,98151.16
2022-11-07T14:05:17.845Z,98146.19
2022-11-07T14:07:26.138Z,98150.31
2022-11-07T14:09:32.783Z,98152.66
2022-11-07T14:11:36.303Z,98153.47
2022-11-07T14:13:41.662Z,98160.53
2022-11-07T14:15:46.875Z,98163.31
2022-11-07T14:17:50.041Z,98161.34
2022-11-07T14:19:55.031Z,98164.72
2022-11-07T14:21:58.106Z,98164.31
2022-11-07T14:24:01.453Z,98166.09
2022-11-07T14:26:18.573Z,98175.78
2022-11-07T14:28:21.649Z,98171.47
2022-11-07T14:30:25.601Z,98175.78
2022-11-07T14:32:32.001Z,98174.81
2022-11-07T14:34:36.744Z,98163.44
2022-11-07T14:36:47.973Z,98168.31
2022-11-07T14:38:52.591Z,98165.53
2022-11-07T14:40:57.234Z,98165.28
2022-11-07T14:43:01.732Z,98165.00
2022-11-07T14:45:06.468Z,98163.22
2022-11-07T14:47:15.470Z,98161.41
2022-11-07T14:49:24.604Z,98163.09
2022-11-07T14:51:29.127Z,98161.00
2022-11-07T14:53:34.223Z,98160.88
2022-11-07T14:55:38.873Z,98161.44
2022-11-07T14:57:42.022Z,98171.81
2022-11-07T14:59:46.587Z,98167.25
2022-11-07T15:01:54.765Z,98166.16
2022-11-07T15:04:00.309Z,98163.38
2022-11-07T15:06:03.919Z,98162.44
2022-11-07T15:08:07.292Z,98159.66
2022-11-07T15:10:20.581Z,98159.66
2022-11-07T15:12:28.686Z,98162.44
2022-11-07T15:14:33.520Z,98169.47
2022-11-07T15:16:48.062Z,98168.66
2022-11-07T15:18:58.738Z,98164.34
2022-11-07T15:21:03.051Z,98160.88
2022-11-07T15:23:08.007Z,98161.03
2022-11-07T15:25:25.656Z,98153.41
2022-11-07T15:27:36.033Z,98161.44
2022-11-07T15:29:39.069Z,98158.25
2022-11-07T15:31:49.368Z,98154.06
2022-11-07T15:33:52.989Z,98164.75
2022-11-07T15:35:57.375Z,98166.69
2022-11-07T15:38:02.590Z,98160.00
2022-11-07T15:40:14.573Z,98161.13
2022-11-07T15:42:17.675Z,98158.78
2022-11-07T15:44:20.689Z,98160.56
2022-11-07T15:46:26.332Z,98158.06
2022-11-07T15:48:38.251Z,98160.00
2022-11-07T15:50:43.403Z,98164.56
2022-11-07T15:52:47.068Z,98159.44
2022-11-07T15:54:50.272Z,98163.03
2022-11-07T15:56:58.337Z,98165.78
2022-11-07T15:59:02.017Z,98168.56
2022-11-07T16:01:05.566Z,98160.94
2022-11-07T16:03:13.894Z,98158.56
2022-11-07T16:05:18.768Z,98166.88
2022-11-07T16:07:22.321Z,98158.41
2022-11-07T16:09:27.153Z,98157.88
2022-11-07T16:11:30.200Z,98156.31
2022-11-07T16:13:33.530Z,98154.91
2022-11-07T16:15:36.682Z,98156.16
2022-11-07T16:17:40.035Z,98164.31
2022-11-07T16:19:43.292Z,98154.88
2022-11-07T16:21:48.464Z,98166.47
2022-11-07T16:23:52.585Z,98153.59
2022-11-07T16:25:55.970Z,98157.09
2022-11-07T16:28:00.953Z,98154.13
2022-11-07T16:30:04.637Z,98160.63
2022-11-07T16:32:08.017Z,98164.44
2022-11-07T16:34:11.762Z,98161.38
2022-11-07T16:36:20.766Z,98159.00
2022-11-07T16:38:26.182Z,98172.16
2022-11-07T16:40:29.349Z,98160.94
2022-11-07T16:42:32.618Z,98167.41
2022-11-07T16:44:35.922Z,98167.09
2022-11-07T16:46:39.113Z,98169.00
2022-11-07T16:48:42.948Z,98164.88
2022-11-07T16:50:46.119Z,98166.91
2022-11-07T16:52:49.164Z,98175.88
2022-11-07T16:54:54.053Z,98170.06
2022-11-07T16:56:57.269Z,98166.03
2022-11-07T16:59:00.416Z,98169.59
2022-11-07T17:01:06.662Z,98174.16
2022-11-07T17:03:12.655Z,98177.59
2022-11-07T17:05:15.844Z,98168.34
2022-11-07T17:07:20.045Z,98169.53
2022-11-07T17:09:24.711Z,98173.25
2022-11-07T17:11:29.268Z,98171.84
2022-11-07T17:13:32.616Z,98169.63
2022-11-07T17:15:35.796Z,98174.25
2022-11-07T17:17:39.161Z,98171.19
2022-11-07T17:19:42.534Z,98173.13
2022-11-07T17:21:49.383Z,98170.88
2022-11-07T17:23:53.271Z,98169.44
2022-11-07T17:25:57.109Z,98181.19
2022-11-07T17:28:01.718Z,98177.25
2022-11-07T17:30:08.552Z,98176.19
2022-11-07T17:32:11.965Z,98175.88
2022-11-07T17:34:15.230Z,98170.50
2022-11-07T17:36:25.583Z,98172.44
2022-11-07T17:38:28.677Z,98174.31
2022-11-07T17:40:33.178Z,98173.75
2022-11-07T17:42:38.191Z,98175.66
2022-11-07T17:44:42.709Z,98163.75
2022-11-07T17:46:47.840Z,98157.94
2022-11-07T17:48:50.897Z,98163.41
2022-11-07T17:50:54.025Z,98178.53
2022-11-07T17:52:57.257Z,98171.78
2022-11-07T17:55:00.297Z,98165.66
2022-11-07T17:57:08.790Z,98175.34
2022-11-07T17:59:14.214Z,98161.41
2022-11-07T18:01:21.257Z,98175.34
2022-11-07T18:03:24.766Z,98176.53
2022-11-07T18:05:33.449Z,98172.03
2022-11-07T18:07:40.701Z,98171.66
2022-11-07T18:09:44.298Z,98175.75
2022-11-07T18:11:47.544Z,98175.38
2022-11-07T18:13:51.302Z,98179.44
2022-11-07T18:46:16.198Z,98167.09
2022-11-07T18:48:34.780Z,98167.22
2022-11-07T18:50:45.969Z,98161.22
2022-11-07T18:52:53.713Z,98166.25
2022-11-07T18:55:02.474Z,98157.56
2022-11-07T18:57:06.224Z,98159.47
2022-11-07T18:59:10.058Z,98165.66
2022-11-07T19:01:16.335Z,98160.53
2022-11-07T19:03:20.393Z,98162.56
2022-11-07T19:05:23.597Z,98158.25
2022-11-07T19:07:27.161Z,98160.16
2022-11-07T19:09:32.185Z,98162.91
2022-11-07T19:11:35.626Z,98156.81
2022-11-07T19:13:40.931Z,98149.19
2022-11-07T19:15:44.559Z,98159.78
2022-11-07T19:17:49.251Z,98160.00
2022-11-07T19:19:53.898Z,98159.41
2022-11-07T19:21:57.085Z,98157.97
2022-11-07T19:24:00.656Z,98155.72
2022-11-07T19:26:03.838Z,98162.94
2022-11-07T19:28:07.208Z,98157.09
2022-11-07T19:30:11.856Z,98152.81
2022-11-07T19:32:15.681Z,98157.31
2022-11-07T19:34:21.054Z,98159.22
2022-11-07T19:36:24.523Z,98162.91
2022-11-07T19:38:27.973Z,98159.69
2022-11-07T19:40:31.899Z,98164.16
2022-11-07T19:42:34.995Z,98167.88
2022-11-07T19:44:40.772Z,98168.91
2022-11-07T19:46:46.386Z,98169.84
2022-11-07T19:48:51.230Z,98169.84
2022-11-07T19:50:55.674Z,98168.19
2022-11-07T19:52:58.778Z,98167.47
2022-11-07T19:55:02.172Z,98167.47
2022-11-07T19:57:06.180Z,98170.94
2022-11-07T19:59:10.300Z,98166.75
2022-11-07T20:01:15.307Z,98170.19
2022-11-07T20:03:18.789Z,98165.09
2022-11-07T20:05:25.040Z,98168.66
2022-11-07T20:07:29.570Z,98160.91
2022-11-07T20:09:33.810Z,98168.03
2022-11-07T20:11:37.848Z,98166.47
2022-11-07T20:13:41.173Z,98168.28
2022-11-07T20:15:44.471Z,98164.31
2022-11-07T20:17:47.557Z,98168.06
2022-11-07T20:19:50.704Z,98167.38
2022-11-07T20:21:53.781Z,98160.78
2022-11-07T20:23:59.572Z,98156.63
2022-11-07T20:26:07.374Z,98167.09
2022-11-07T20:28:10.672Z,98164.81
2022-11-07T20:30:14.637Z,98166.78
2022-11-07T20:32:17.792Z,98176.53
2022-11-07T20:34:21.074Z,98171.50
2022-11-07T20:36:24.206Z,98182.06
2022-11-07T20:38:28.238Z,98184.06
2022-11-07T20:40:32.944Z,98183.47
2022-11-07T20:42:36.766Z,98187.22
2022-11-07T20:44:41.100Z,98189.94
2022-11-07T20:46:46.089Z,98181.50
2022-11-07T20:48:49.540Z,98181.59
2022-11-07T20:50:53.232Z,98188.78
2022-11-07T20:52:58.998Z,98194.97
2022-11-07T20:55:03.647Z,98194.31
2022-11-07T20:57:09.328Z,98187.66
2022-11-07T20:59:12.510Z,98193.81
2022-11-07T21:01:17.371Z,98197.56
2022-11-07T21:03:20.913Z,98188.19
2022-11-07T21:05:24.287Z,98192.69
2022-11-07T21:07:27.371Z,98194.56
2022-11-07T21:09:30.474Z,98197.28
2022-11-07T21:11:33.997Z,98193.13
2022-11-07T21:13:49.635Z,98196.75
2022-11-07T21:15:56.332Z,98194.38
2022-11-07T21:18:00.720Z,98198.75
2022-11-07T21:20:04.756Z,98196.38
2022-11-07T21:22:07.940Z,98196.56
2022-11-07T21:24:11.545Z,98202.81
2022-11-07T21:26:17.380Z,98199.38
2022-11-07T21:28:20.531Z,98200.44
2022-11-07T21:30:25.297Z,98199.69
2022-11-07T21:32:28.475Z,98206.88
2022-11-07T21:34:37.234Z,98195.94
2022-11-07T21:36:40.398Z,98197.81
2022-11-07T21:38:44.839Z,98190.94
2022-11-07T21:40:48.196Z,98192.91
2022-11-07T21:42:54.828Z,98193.75
2022-11-07T21:44:57.933Z,98192.19
2022-11-07T21:47:02.888Z,98195.84
2022-11-07T21:49:06.200Z,98193.34
2022-11-07T21:51:11.334Z,98189.13
2022-11-07T21:53:14.689Z,98181.53
2022-11-07T21:55:18.838Z,98188.72
2022-11-07T21:57:23.735Z,98180.28
2022-11-07T21:59:27.157Z,98176.19
2022-11-07T22:01:35.280Z,98175.59
2022-11-07T22:06:06.004Z,98172.13
2022-11-07T22:08:09.386Z,98174.09
2022-11-07T22:10:13.622Z,98178.59
2022-11-07T22:12:17.302Z,98171.72
2022-11-07T22:14:22.825Z,98168.28
2022-11-07T22:16:26.150Z,98179.94
2022-11-07T22:18:29.440Z,98169.91
2022-11-07T22:20:34.671Z,98163.25
2022-11-07T22:22:37.840Z,98166.78
2022-11-07T22:24:40.976Z,98160.00
2022-11-07T22:26:44.443Z,98159.16
2022-11-07T22:28:49.034Z,98164.38
2022-11-07T22:30:52.065Z,98155.84
2022-11-07T22:32:55.386Z,98143.84
2022-11-07T22:34:58.931Z,98140.50
2022-11-07T22:37:03.396Z,98131.94
2022-11-07T22:39:06.788Z,98136.50
2022-11-07T22:41:12.066Z,98132.22
2022-11-07T22:43:15.481Z,98129.72
2022-11-07T22:45:19.105Z,98125.38
2022-11-07T22:47:22.339Z,98115.03
2022-11-07T22:49:25.430Z,98113.66
2022-11-07T22:51:31.212Z,98116.56
2022-11-07T22:53:36.335Z,98115.03
2022-11-07T22:55:40.202Z,98120.44
2022-11-07T22:57:43.278Z,98116.25
2022-11-07T22:59:46.230Z,98121.66
2022-11-07T23:01:49.452Z,98125.28
2022-11-07T23:03:52.858Z,98125.56
2022-11-07T23:05:55.927Z,98122.22
2022-11-07T23:07:58.984Z,98118.91
2022-11-07T23:10:03.523Z,98118.16
2022-11-07T23:12:06.694Z,98120.03
2022-11-07T23:14:12.554Z,98120.03
2022-11-07T23:16:23.065Z,98114.91
2022-11-07T23:18:26.147Z,98111.59
2022-11-07T23:20:46.856Z,98116.78
2022-11-07T23:22:49.848Z,98116.13
2022-11-07T23:24:53.001Z,98112.91
2022-11-07T23:26:57.597Z,98110.31
2022-11-07T23:29:04.587Z,98111.25
2022-11-07T23:31:11.279Z,98111.25
2022-11-07T23:33:14.637Z,98113.97
2022-11-07T23:35:17.880Z,98114.06
2022-11-07T23:37:21.188Z,98102.06
2022-11-07T23:39:25.947Z,98104.66
2022-11-07T23:41:29.006Z,98098.63
2022-11-07T23:43:34.692Z,98099.56
2022-11-07T23:45:55.233Z,98095.47
2022-11-07T23:48:18.155Z,98097.97
2022-11-07T23:50:39.282Z,98099.75
2022-11-07T23:52:42.368Z,98102.56
2022-11-07T23:55:03.147Z,98094.84
2022-11-07T23:57:06.199Z,98098.56
2022-11-07T23:59:28.379Z,98100.53
